Tiempo atmosférico en la estación meteorológica de Benabarre, Huesca (765 m.)

Fecha
DESCASC
Temp. máxima en grados centígrados (hora)
DESCASC
Temp. mínima en grados centígrados (hora)
DESCASC
Temp. media en grados centígrados
DESCASC
Racha de viento máxima en m/sg (hora)
DESCASC
Velocidad máxima media en intervalos de 10 minutos(hora)
DESCASC
Precipitaciones diarias en mm
DESCASC
Precipitaciones de 00:00 a 06:00 en mm
DESCASC
Precipitaciones de 06:00 a 12:00 en mm
DESCASC
Precipitaciones de 12:00 a 18:00 en mm
DESCASC
Precipitaciones de 18:00 a 24:00 en mm
DESCASC
17-08-2017 33.2 (17:10) 16.6 (07:10) 24.9 8.06 (16:00) 4.44 (19:00) 0 0 0 0 0
16-08-2017 30.3 (16:40) 18.7 (08:10) 24.5 10.28 (16:40) 6.39 (02:30) 0 0 0 0 0
15-08-2017 31 (17:20) 16.6 (00:00) 23.8 14.72 (21:10) 8.33 (21:10) 1.6 0 0 0 1.6
14-08-2017 31.5 (16:40) 17.2 (02:10) 24.4 9.72 (21:20) 6.67 (21:10) 0 0 0 0 0
13-08-2017 29.4 (16:30) 12.9 (00:00) 21.1 8.89 (14:50) 3.89 (17:00) 0 0 0 0 0
12-08-2017 27 (19:40) 10.7 (00:00) 18.8 8.61 (16:50) 4.72 (17:40) 0 0 0 0 0
11-08-2017 25 (17:40) 8.3 (00:00) 16.7 8.06 (16:50) 4.72 (16:40) 0 0 0 0 0
10-08-2017 24.3 (18:50) 6.3 (00:00) 15.3 10.83 (20:20) 7.22 (20:20) 0 0 0 0 0
09-08-2017 19.5 (12:00) 10.2 (00:00) 14.8 5.83 (13:20) 4.17 (13:20) 3.2 0 0 1.2 2
08-08-2017 27 (16:30) 14.1 (00:00) 20.6 11.39 (18:10) 6.67 (16:20) 0 0 0 0 0
07-08-2017 31.3 (17:20) 18.1 (00:00) 24.7 10.83 (23:20) 6.39 (23:20) 0 0 0 0 0
06-08-2017 29 (19:20) 18.3 (00:00) 23.6 7.5 (02:00) 4.72 (05:20) 0 0 0 0 0
05-08-2017 33.6 (17:20) 20 (00:00) 26.8 8.33 (17:10) 4.44 (14:20) 0 0 0 0 0
04-08-2017 34.4 (17:10) 20 (00:00) 27.2 9.17 (14:00) 5 (19:30) 0 0 0 0 0
03-08-2017 35.2 (18:10) 19.9 (00:00) 27.6 9.72 (16:10) 4.44 (16:40) 0 0 0 0 0
02-08-2017 33.8 (18:30) 21.5 (00:00) 27.6 11.67 (14:30) 6.39 (14:00) 0 0 0 0 0
01-08-2017 29.3 (18:30) 19.6 (00:00) 24.4 9.17 (18:20) 5.56 (17:10) 0 0 0 0 0
31-07-2017 33.6 (15:40) 17.9 (00:00) 25.7 13.89 (16:30) 7.78 (22:30) 0 0 0 0 0
30-07-2017 36 (17:20) 18.8 (00:00) 27.4 9.72 (15:50) 5.28 (20:40) 0 0 0 0 0
29-07-2017 33.5 (18:30) 18 (00:00) 25.8 8.33 (14:00) 4.17 (15:30) 0 0 0 0 0
28-07-2017 32.6 (18:20) 17.6 (00:00) 25.1 7.5 (15:10) 4.44 (14:10) 0 0 0 0 0
27-07-2017 32.9 (20:00) 13.9 (00:00) 23.4 10 (15:10) 5.28 (15:50) 0 0 0 0 0
26-07-2017 28.7 (19:30) 10.9 (00:00) 19.8 8.61 (16:40) 5 (16:20) 0 0 0 0 0
25-07-2017 27.1 (17:20) 11.1 (00:00) 19.1 8.89 (14:00) 5.28 (14:20) 0 0 0 0 0
24-07-2017 29.1 (17:30) 15.2 (00:00) 22.2 10.28 (15:20) 6.39 (19:00) 0 0 0 0 0
23-07-2017 27.4 (13:40) 16.7 (00:00) 22.1 10.56 (20:20) 6.11 (20:20) 0 0 0 0 0
22-07-2017 30.4 (18:00) 15.3 (00:00) 22.8 8.06 (14:20) 4.72 (14:20) 0 0 0 0 0
21-07-2017 28.3 (18:00) 17.2 (00:00) 22.8 8.33 (09:40) 5.28 (09:40) 1.2 0 1.2 0 0
20-07-2017 29.4 (18:50) 16.1 (00:00) 22.8 9.44 (23:20) 4.44 (00:20) 0 0 0 0 0
19-07-2017 31.1 (13:50) 18.3 (00:00) 24.7 12.5 (10:00) 8.89 (10:10) 0.4 0 0.4 0 0

Gráficas

Temp. máximas Temp. mínimas Temp. medias Precipitaciones Rachas de viento máximas Velocidades máximas media en intervalos de 10 minutos

Datos horarios

Fecha y hora oficial Temperatura (ºC) Velocidad del viento (km/h) Dirección del viento Racha (km/h) Dirección de racha Precipitación (mm) Presión (hPa) Tendencia (hPa) Humedad (%)
2017-08-17 23:00:00 23.9 8 Este 12 Este 0 -- -- 52
2017-08-17 22:00:00 24.7 4 Sudeste 10 Sudeste 0 -- -- 41
2017-08-17 21:00:00 27.1 7 Sudeste 18 Sur 0 -- -- 36
2017-08-17 20:00:00 30.8 10 Sur 24 Sudoeste 0 -- -- 31
2017-08-17 19:00:00 31.6 16 Sudoeste 27 Sudoeste 0 -- -- 29
2017-08-17 18:00:00 32.7 11 Sudoeste 24 Sudoeste 0 -- -- 27
2017-08-17 17:00:00 32.8 10 Sudoeste 27 Oeste 0 -- -- 28
2017-08-17 16:00:00 31.9 15 Oeste 29 Oeste 0 -- -- 29
2017-08-17 15:00:00 31.4 10 Oeste 23 Oeste 0 -- -- 29
2017-08-17 14:00:00 30.9 6 Sudoeste 25 Sudoeste 0 -- -- 36
2017-08-17 13:00:00 29 11 Sudeste 21 Sudeste 0 -- -- 42
2017-08-17 12:00:00 28.3 8 Sudeste 19 Sudeste 0 -- -- 50
2017-08-17 11:00:00 25.3 10 Sur 17 Sur 0 -- -- 60
2017-08-17 10:00:00 24.4 5 Sur 12 Este 0 -- -- 63
2017-08-17 09:00:00 23.6 6 Este 9 Este 0 -- -- 66
2017-08-17 08:00:00 18.7 0 Calma 9 Norte 0 -- -- 84
2017-08-17 07:00:00 16.7 4 Nordeste 9 Norte 0 -- -- 91
2017-08-17 06:00:00 17.2 5 Norte 10 Norte 0 -- -- 89
2017-08-17 05:00:00 17.8 5 Norte 10 Norte 0 -- -- 88
2017-08-17 04:00:00 18.1 7 Norte 10 Norte 0 -- -- 87
2017-08-17 03:00:00 19.1 5 Norte 10 Este 0 -- -- 82
2017-08-17 02:00:00 20.7 8 Este 11 Este 0 -- -- 76
2017-08-17 01:00:00 19.4 6 Norte 10 Norte 0 -- -- 80
2017-08-17 00:00:00 19.9 4 Norte 10 Norte 0 -- -- 78
2017-08-16 23:00:00 20.8 4 Nordeste 10 Norte 0 -- -- 74
2017-08-16 22:00:00 22.7 2 Oeste 8 Noroeste 0 -- -- 69
2017-08-16 21:00:00 26.6 4 Noroeste 14 Noroeste 0 -- -- 57
2017-08-16 20:00:00 29 9 Oeste 20 Oeste 0 -- -- 48
2017-08-16 19:00:00 29.2 15 Noroeste 25 Oeste 0 -- -- 44
2017-08-16 18:00:00 30.2 11 Oeste 23 Oeste 0 -- -- 45
2017-08-16 17:00:00 29.8 14 Sudoeste 37 Sudoeste 0 -- -- 43
2017-08-16 16:00:00 28.9 14 Oeste 22 Noroeste 0 -- -- 52
2017-08-16 15:00:00 28.2 9 Sudoeste 19 Sudoeste 0 -- -- 54
2017-08-16 14:00:00 28.1 12 Noroeste 21 Sudeste 0 -- -- 52
2017-08-16 13:00:00 28.1 7 Sudeste 20 Sudeste 0 -- -- 48
2017-08-16 12:00:00 26.3 9 Sudeste 19 Este 0 -- -- 50
2017-08-16 11:00:00 24.1 9 Sur 14 Sudeste 0 -- -- 54
2017-08-16 10:00:00 24 3 Este 6 Nordeste 0 -- -- 57
2017-08-16 09:00:00 20.6 5 Este 6 Este 0 -- -- 66
2017-08-16 08:00:00 19 4 Nordeste 15 Este 0 -- -- 73
2017-08-16 07:00:00 19.6 7 Este 20 Este 0 -- -- 65
2017-08-16 06:00:00 19.9 12 Este 21 Nordeste 0 -- -- 64
2017-08-16 05:00:00 19.5 13 Nordeste 21 Nordeste 0 -- -- 66
2017-08-16 04:00:00 19.4 17 Nordeste 28 Este 0 -- -- 69
2017-08-16 03:00:00 20.2 19 Nordeste 30 Este 0 -- -- 66
2017-08-16 02:00:00 20.2 19 Nordeste 28 Nordeste 0 -- -- 67
2017-08-16 01:00:00 19.9 12 Este 23 Este 0 -- -- 68
2017-08-16 00:00:00 19.9 6 Este 18 Nordeste 0 -- -- 69
2017-08-15 23:00:00 19.6 5 Oeste 28 Este 0 -- -- 69
2017-08-15 22:00:00 20.2 21 Este 53 Noroeste 1.6 -- -- 66
2017-08-15 21:00:00 25.3 9 Sur 26 Sudeste 0 -- -- 54
2017-08-15 20:00:00 26.2 16 Este 26 Este 0 -- -- 49
2017-08-15 19:00:00 27.5 17 Sudeste 31 Este 0 -- -- 45
2017-08-15 18:00:00 29.6 17 Sudeste 28 Sudeste 0 -- -- 36
2017-08-15 17:00:00 28.8 14 Sudeste 30 Sudeste 0 -- -- 33
2017-08-15 16:00:00 28.8 14 Sudeste 24 Este 0 -- -- 34
2017-08-15 15:00:00 27.4 9 Sudeste 34 Sudeste 0 -- -- 37
2017-08-15 14:00:00 28.4 15 Sudeste 28 Sur 0 -- -- 30
2017-08-15 13:00:00 29 13 Sudeste 28 Este 0 -- -- 32
2017-08-15 12:00:00 27 8 Sur 33 Este 0 -- -- 37
2017-08-15 11:00:00 24.4 9 Este 24 Este 0 -- -- 43
2017-08-15 10:00:00 24.6 16 Este 26 Este 0 -- -- 41
2017-08-15 09:00:00 22.2 5 Este 10 Este 0 -- -- 48
2017-08-15 08:00:00 18.8 6 Este 10 Este 0 -- -- 54
2017-08-15 07:00:00 16.9 7 Este 8 Este 0 -- -- 57
2017-08-15 06:00:00 16.6 6 Este 14 Nordeste 0 -- -- 58
2017-08-15 05:00:00 18.2 5 Este 11 Este 0 -- -- 53
2017-08-15 04:00:00 18.7 9 Este 21 Nordeste 0 -- -- 51
2017-08-15 03:00:00 19.2 8 Este 17 Este 0 -- -- 51
2017-08-15 02:00:00 20.2 6 Nordeste 14 Este 0 -- -- 51
2017-08-15 01:00:00 18.4 6 Nordeste 16 Este 0 -- -- 57
2017-08-15 00:00:00 19.6 6 Nordeste 13 Este 0 -- -- 54
2017-08-14 23:00:00 21.2 10 Este 26 Sudeste 0 -- -- 50
2017-08-14 22:00:00 23.1 15 Sudeste 35 Sudeste 0 -- -- 50
2017-08-14 21:00:00 24.7 21 Sudeste 31 Sudeste 0 -- -- 46
2017-08-14 20:00:00 28.7 17 Sudeste 33 Sur 0 -- -- 39
2017-08-14 19:00:00 29.8 15 Sur 30 Sudeste 0 -- -- 34
2017-08-14 18:00:00 31.1 13 Sudeste 28 Sudeste 0 -- -- 27
2017-08-14 17:00:00 31.5 12 Sur 24 Sur 0 -- -- 27
2017-08-14 16:00:00 31.3 13 Sudeste 24 Sur 0 -- -- 26
2017-08-14 15:00:00 30.9 11 Sudeste 28 Sudeste 0 -- -- 26
2017-08-14 14:00:00 29.7 10 Sur 24 Sudeste 0 -- -- 31
2017-08-14 13:00:00 28.4 8 Sur 19 Sudeste 0 -- -- 36
2017-08-14 12:00:00 27.5 10 Sudeste 23 Sudeste 0 -- -- 37
2017-08-14 11:00:00 27 8 Este 24 Este 0 -- -- 44
2017-08-14 10:00:00 24.4 16 Este 30 Este 0 -- -- 49
2017-08-14 09:00:00 22.6 12 Este 24 Este 0 -- -- 55
2017-08-14 08:00:00 20.2 12 Este 19 Nordeste 0 -- -- 60
2017-08-14 07:00:00 18.4 7 Este 14 Este 0 -- -- 66
2017-08-14 06:00:00 18.2 10 Este 15 Este 0 -- -- 65
2017-08-14 05:00:00 18.1 7 Este 13 Este 0 -- -- 63
2017-08-14 04:00:00 18.6 5 Sudeste 18 Este 0 -- -- 67
2017-08-14 03:00:00 19.3 9 Nordeste 15 Nordeste 0 -- -- 67
2017-08-14 02:00:00 17.4 0 Calma 9 Norte 0 -- -- 73
2017-08-14 01:00:00 17.4 6 Norte 10 Norte 0 -- -- 72
2017-08-14 00:00:00 20 2 Este 13 Sur 0 -- -- 63
2017-08-13 23:00:00 21.2 8 Sudeste 14 Sudeste 0 -- -- 60
2017-08-13 22:00:00 22.8 6 Sudeste 14 Sur 0 -- -- 55
2017-08-13 21:00:00 25.2 6 Sudeste 19 Sur 0 -- -- 37
2017-08-13 20:00:00 28 12 Sur 21 Sur 0 -- -- 33
2017-08-13 19:00:00 28.8 11 Sur 24 Sur 0 -- -- 33
2017-08-13 18:00:00 29 11 Sur 26 Sudoeste 0 -- -- 33
2017-08-13 17:00:00 28.7 14 Sur 29 Sudoeste 0 -- -- 35
2017-08-13 16:00:00 28.4 13 Noroeste 24 Oeste 0 -- -- 34
2017-08-13 15:00:00 28.3 12 Oeste 32 Oeste 0 -- -- 35
2017-08-13 14:00:00 28.2 7 Sudoeste 19 Este 0 -- -- 34
2017-08-13 13:00:00 26.8 9 Sur 21 Sudeste 0 -- -- 38
2017-08-13 12:00:00 26 8 Este 13 Sudeste 0 -- -- 38
2017-08-13 11:00:00 24.8 4 Sudeste 13 Sudeste 0 -- -- 39
2017-08-13 10:00:00 22.3 6 Sudeste 12 Sudeste 0 -- -- 46
2017-08-13 09:00:00 20.5 5 Este 8 Este 0 -- -- 50
2017-08-13 08:00:00 15.3 2 Norte 11 Noroeste 0 -- -- 66
2017-08-13 07:00:00 13 8 Norte 11 Noroeste 0 -- -- 72
2017-08-13 06:00:00 13.2 8 Norte 10 Norte 0 -- -- 72
2017-08-13 05:00:00 13.8 7 Norte 12 Norte 0 -- -- 73
2017-08-13 04:00:00 14.1 8 Norte 12 Norte 0 -- -- 71
2017-08-13 03:00:00 14.5 8 Norte 11 Norte 0 -- -- 66
2017-08-13 02:00:00 15 5 Norte 9 Norte 0 -- -- 64
2017-08-13 01:00:00 16.3 3 Este 6 Este 0 -- -- 59
2017-08-13 00:00:00 16.6 7 Norte 10 Norte 0 -- -- 58
2017-08-12 23:00:00 17.7 3 Nordeste 7 Nordeste 0 -- -- 55
2017-08-12 22:00:00 19.1 4 Nordeste 8 Sudoeste 0 -- -- 52
2017-08-12 21:00:00 22.6 2 Oeste 13 Sur 0 -- -- 42
2017-08-12 20:00:00 26.2 8 Sudoeste 16 Oeste 0 -- -- 36
2017-08-12 19:00:00 26.4 11 Oeste 21 Sudoeste 0 -- -- 37
2017-08-12 18:00:00 25.7 12 Sudoeste 28 Sudoeste 0 -- -- 38
2017-08-12 17:00:00 26.2 12 Sudoeste 31 Sudoeste 0 -- -- 37
2017-08-12 16:00:00 26.3 9 Oeste 26 Oeste 0 -- -- 36
2017-08-12 15:00:00 24.9 11 Sudoeste 22 Oeste 0 -- -- 35
2017-08-12 14:00:00 23.7 9 Oeste 22 Sudoeste 0 -- -- 39
2017-08-12 13:00:00 23.4 6 Norte 22 Oeste 0 -- -- 40
2017-08-12 12:00:00 21.8 5 Sudoeste 19 Oeste 0 -- -- 47
2017-08-12 11:00:00 20.6 5 Sudoeste 13 Noroeste 0 -- -- 50
2017-08-12 10:00:00 20.6 5 Sudeste 14 Este 0 -- -- 51
2017-08-12 09:00:00 18.7 3 Nordeste 10 Nordeste 0 -- -- 58
2017-08-12 08:00:00 13 9 Nordeste 12 Norte 0 -- -- 84
2017-08-12 07:00:00 10.8 7 Norte 11 Nordeste 0 -- -- 91
2017-08-12 06:00:00 12.4 4 Este 13 Este 0 -- -- 86
2017-08-12 05:00:00 12.9 9 Este 16 Este 0 -- -- 83
2017-08-12 04:00:00 13.1 12 Este 15 Este 0 -- -- 78
2017-08-12 03:00:00 14.1 13 Este 21 Este 0 -- -- 74
2017-08-12 02:00:00 14.9 13 Este 24 Este 0 -- -- 59
2017-08-12 01:00:00 14.8 8 Este 13 Este 0 -- -- 61
2017-08-12 00:00:00 15.5 8 Este 14 Este 0 -- -- 57
2017-08-11 23:00:00 15.8 4 Nordeste 14 Este 0 -- -- 58
2017-08-11 22:00:00 18.1 8 Este 12 Este 0 -- -- 50
2017-08-11 21:00:00 20.8 5 Sudeste 23 Sudoeste 0 -- -- 43
2017-08-11 20:00:00 23.2 14 Sudoeste 28 Sudoeste 0 -- -- 36
2017-08-11 19:00:00 23.6 15 Sudoeste 29 Sudoeste 0 -- -- 35
2017-08-11 18:00:00 24.1 16 Sudoeste 27 Sudoeste 0 -- -- 31
2017-08-11 17:00:00 23.6 15 Sudoeste 29 Sudoeste 0 -- -- 31
2017-08-11 16:00:00 23.2 12 Oeste 26 Sudoeste 0 -- -- 29
2017-08-11 15:00:00 21.6 14 Sudoeste 28 Oeste 0 -- -- 36
2017-08-11 14:00:00 21.5 12 Oeste 25 Oeste 0 -- -- 40
2017-08-11 13:00:00 20 14 Oeste 19 Oeste 0 -- -- 41
2017-08-11 12:00:00 20.3 6 Sudeste 13 Sur 0 -- -- 42
2017-08-11 11:00:00 18 7 Sur 14 Sudeste 0 -- -- 53
2017-08-11 10:00:00 17.5 5 Sur 10 Sudeste 0 -- -- 50
2017-08-11 09:00:00 15.7 2 Sur 8 Norte 0 -- -- 53
2017-08-11 08:00:00 10 5 Norte 10 Norte 0 -- -- 71
2017-08-11 07:00:00 8.3 4 Norte 12 Norte 0 -- -- 77
2017-08-11 06:00:00 9.5 8 Norte 13 Noroeste 0 -- -- 72
2017-08-11 05:00:00 10.9 9 Noroeste 14 Noroeste 0 -- -- 68
2017-08-11 04:00:00 11.3 8 Norte 13 Noroeste 0 -- -- 66
2017-08-11 03:00:00 11.2 9 Norte 12 Noroeste 0 -- -- 68
2017-08-11 02:00:00 13.4 8 Noroeste 17 Oeste 0 -- -- 60
2017-08-11 01:00:00 14.4 11 Oeste 19 Oeste 0 -- -- 55
2017-08-11 00:00:00 15.3 14 Oeste 23 Oeste 0 -- -- 55
2017-08-10 23:00:00 16.5 15 Noroeste 25 Noroeste 0 -- -- 46
2017-08-10 22:00:00 17.8 17 Noroeste 30 Oeste 0 -- -- 46
2017-08-10 21:00:00 19.9 17 Oeste 39 Oeste 0 -- -- 41
2017-08-10 20:00:00 23.6 13 Oeste 27 Oeste 0 -- -- 35
2017-08-10 19:00:00 24.2 13 Oeste 27 Oeste 0 -- -- 35
2017-08-10 18:00:00 22.6 14 Sur 34 Sudoeste 0 -- -- 39
2017-08-10 17:00:00 23.6 17 Oeste 34 Oeste 0 -- -- 39
2017-08-10 16:00:00 22.7 13 Noroeste 27 Oeste 0 -- -- 37
2017-08-10 15:00:00 21.3 15 Oeste 31 Oeste 0 -- -- 37
2017-08-10 14:00:00 20.9 12 Oeste 22 Oeste 0 -- -- 40
2017-08-10 13:00:00 19.3 11 Oeste 21 Oeste 0 -- -- 41
2017-08-10 12:00:00 19 9 Oeste 15 Oeste 0 -- -- 46
2017-08-10 11:00:00 17.4 5 Sur 9 Sur 0 -- -- 48
2017-08-10 10:00:00 16.3 4 Sur 9 Sudeste 0 -- -- 63
2017-08-10 09:00:00 15.6 2 Sur 6 Nordeste 0 -- -- 62
2017-08-10 08:00:00 10.8 0 Calma 15 Norte 0 -- -- 75
2017-08-10 07:00:00 6.3 13 Norte 16 Norte 0 -- -- 90
2017-08-10 06:00:00 7.3 12 Norte 15 Norte 0 -- -- 88
2017-08-10 05:00:00 8.6 8 Norte 17 Norte 0 -- -- 86
2017-08-10 04:00:00 8.6 10 Norte 15 Norte 0 -- -- 87
2017-08-10 03:00:00 9.8 7 Norte 13 Nordeste 0 -- -- 89
2017-08-10 02:00:00 10.4 10 Norte 14 Nordeste 0 -- -- 91
2017-08-10 01:00:00 10.9 9 Norte 14 Nordeste 0 -- -- 96
2017-08-10 00:00:00 12 9 Nordeste 12 Nordeste 0.2 -- -- 97
2017-08-09 23:00:00 12.6 7 Sudeste 12 Sudeste 0 -- -- 96
2017-08-09 22:00:00 12.8 8 Sudeste 16 Este 0 -- -- 95
2017-08-09 21:00:00 13.4 5 Sur 14 Este 0.4 -- -- 93
2017-08-09 20:00:00 13.5 9 Sur 15 Sudeste 0.4 -- -- 94
2017-08-09 19:00:00 14.1 7 Sudeste 15 Sur 1 -- -- 91
2017-08-09 18:00:00 16.6 4 Sudoeste 17 Noroeste 0 -- -- 72
2017-08-09 17:00:00 16.9 11 Noroeste 18 Noroeste 0.2 -- -- 67
2017-08-09 16:00:00 16.7 12 Noroeste 19 Noroeste 0 -- -- 71
2017-08-09 15:00:00 19 6 Oeste 13 Oeste 0 -- -- 60
2017-08-09 14:00:00 18 4 Noroeste 21 Noroeste 1 -- -- 69
2017-08-09 13:00:00 19 9 Oeste 17 Oeste 0 -- -- 55
2017-08-09 12:00:00 19.5 6 Oeste 13 Sudoeste 0 -- -- 51
2017-08-09 11:00:00 18.9 6 Sudeste 12 Sudeste 0 -- -- 53
2017-08-09 10:00:00 17 8 Sur 11 Sur 0 -- -- 59
2017-08-09 09:00:00 15.4 4 Sudeste 9 Este 0 -- -- 62
2017-08-09 08:00:00 12.6 6 Este 15 Norte 0 -- -- 70
2017-08-09 07:00:00 10.2 9 Norte 16 Norte 0 -- -- 78
2017-08-09 06:00:00 11.1 11 Norte 15 Norte 0 -- -- 75
2017-08-09 05:00:00 10.8 9 Norte 13 Norte 0 -- -- 80
2017-08-09 04:00:00 11.2 8 Norte 11 Norte 0 -- -- 77
2017-08-09 03:00:00 12.4 6 Nordeste 13 Este 0 -- -- 72
2017-08-09 02:00:00 13.5 8 Este 13 Sudeste 0 -- -- 63
2017-08-09 01:00:00 13.4 4 Este 11 Norte 0 -- -- 64
2017-08-09 00:00:00 14.1 5 Noroeste 11 Norte 0 -- -- 63
2017-08-08 23:00:00 15.9 7 Norte 22 Oeste 0 -- -- 57
2017-08-08 22:00:00 18.8 11 Oeste 30 Oeste 0 -- -- 46
2017-08-08 21:00:00 21.4 19 Oeste 34 Oeste 0 -- -- 42
2017-08-08 20:00:00 24.4 21 Oeste 37 Oeste 0 -- -- 31
2017-08-08 19:00:00 25.7 22 Oeste 41 Sur 0 -- -- 27
2017-08-08 18:00:00 26.7 17 Sudoeste 40 Sudoeste 0 -- -- 28
2017-08-08 17:00:00 26.9 18 Sudoeste 40 Oeste 0 -- -- 27
2017-08-08 16:00:00 26.7 21 Sudoeste 40 Sudoeste 0 -- -- 27
2017-08-08 15:00:00 25.9 19 Sudoeste 32 Sur 0 -- -- 36
2017-08-08 14:00:00 25 16 Sur 34 Sur 0 -- -- 43
2017-08-08 13:00:00 24.9 17 Sudoeste 31 Oeste 0 -- -- 48
2017-08-08 12:00:00 23.6 16 Sudoeste 29 Sudoeste 0 -- -- 54
2017-08-08 11:00:00 23.3 11 Oeste 20 Sudoeste 0 -- -- 71
2017-08-08 10:00:00 21.8 7 Noroeste 13 Oeste 0 -- -- 78
2017-08-08 09:00:00 20.9 9 Oeste 13 Oeste 0 -- -- 84
2017-08-08 08:00:00 20.4 5 Norte 8 Noroeste 0 -- -- 83
2017-08-08 07:00:00 18 4 Norte 10 Este 0 -- -- 88
2017-08-08 06:00:00 19.4 6 Este 8 Este 0 -- -- 82
2017-08-08 05:00:00 20.3 3 Nordeste 14 Este 0 -- -- 80
2017-08-08 04:00:00 20 6 Este 9 Este 0 -- -- 79
2017-08-08 03:00:00 20.1 5 Este 15 Este 0 -- -- 83
2017-08-08 02:00:00 20.7 9 Este 17 Este 0 -- -- 78
2017-08-08 01:00:00 20.6 10 Este 36 Sudeste 0 -- -- 81
2017-08-08 00:00:00 21.6 18 Sudeste 39 Sudeste 0 -- -- 78
2017-08-07 23:00:00 22.5 19 Sudeste 29 Sudeste 0 -- -- 75
2017-08-07 22:00:00 23.4 15 Sudeste 27 Sudeste 0 -- -- 71
2017-08-07 21:00:00 25.1 18 Sudeste 31 Sudeste 0 -- -- 64
2017-08-07 20:00:00 26.8 13 Sudeste 29 Sudeste 0 -- -- 58
2017-08-07 19:00:00 28.1 15 Sudeste 27 Sur 0 -- -- 53
2017-08-07 18:00:00 29.2 10 Sudeste 20 Este 0 -- -- 45
2017-08-07 17:00:00 29.5 12 Sur 26 Este 0 -- -- 44
2017-08-07 16:00:00 29.3 12 Este 26 Sudeste 0 -- -- 49
2017-08-07 15:00:00 27.6 12 Sudeste 24 Este 0 -- -- 58
2017-08-07 14:00:00 26.1 12 Este 29 Este 0 -- -- 65
2017-08-07 13:00:00 23 20 Este 27 Este 0 -- -- 75
2017-08-07 12:00:00 20.5 11 Sudeste 20 Sudeste 0 -- -- 87
2017-08-07 11:00:00 20.8 13 Sudeste 18 Sudeste 0 -- -- 82
2017-08-07 10:00:00 20.6 8 Sudeste 15 Este 0 -- -- 82
2017-08-07 09:00:00 20.3 7 Sudeste 11 Sur 0 -- -- 84
2017-08-07 08:00:00 20.3 5 Este 9 Este 0 -- -- 82
2017-08-07 07:00:00 18.3 3 Sudeste 6 Este 0 -- -- 86
2017-08-07 06:00:00 18.7 5 Este 7 Este 0 -- -- 85
2017-08-07 05:00:00 18.3 0 Calma 6 Norte 0 -- -- 87
2017-08-07 04:00:00 18.2 6 Norte 11 Norte 0 -- -- 86
2017-08-07 03:00:00 18.6 6 Norte 10 Norte 0 -- -- 85
2017-08-07 02:00:00 18.9 3 Nordeste 10 Norte 0 -- -- 83
2017-08-07 01:00:00 18.7 7 Norte 10 Norte 0 -- -- 80
2017-08-07 00:00:00 19.8 0 Calma 12 Sudoeste 0 -- -- 73
2017-08-06 23:00:00 20.1 7 Norte 10 Noroeste 0 -- -- 70
2017-08-06 22:00:00 21.8 7 Norte 11 Sur 0 -- -- 65
2017-08-06 21:00:00 25.2 6 Sur 15 Sur 0 -- -- 53
2017-08-06 20:00:00 28 9 Sur 14 Sur 0 -- -- 49
2017-08-06 19:00:00 28.2 7 Sudeste 17 Sudeste 0 -- -- 49
2017-08-06 18:00:00 26.7 9 Sur 19 Sudoeste 0 -- -- 54
2017-08-06 17:00:00 26.7 9 Sur 24 Sudoeste 0 -- -- 55
2017-08-06 16:00:00 27.1 10 Sur 24 Sur 0 -- -- 52
2017-08-06 15:00:00 27.4 10 Sudoeste 21 Sudoeste 0 -- -- 52
2017-08-06 14:00:00 25.3 9 Sudoeste 19 Sudoeste 0 -- -- 57
2017-08-06 13:00:00 25.6 8 Sur 17 Sudeste 0 -- -- 57
2017-08-06 12:00:00 23.5 5 Sur 14 Sudeste 0 -- -- 61
2017-08-06 11:00:00 21 7 Sur 15 Sudeste 0 -- -- 68
2017-08-06 10:00:00 19.6 9 Sudeste 17 Sudeste 0 -- -- 72
2017-08-06 09:00:00 18.7 6 Sudeste 12 Este 0 -- -- 75
2017-08-06 08:00:00 18.4 8 Sudeste 12 Sudeste 0 -- -- 76
2017-08-06 07:00:00 18.8 7 Este 14 Este 0 -- -- 74
2017-08-06 06:00:00 18.9 8 Sudeste 25 Sudeste 0 -- -- 73
2017-08-06 05:00:00 20.7 13 Sudeste 18 Sudeste 0 -- -- 70
2017-08-06 04:00:00 21.5 13 Este 22 Sudeste 0 -- -- 71
2017-08-06 03:00:00 22.4 11 Sudeste 22 Sudeste 0 -- -- 71
2017-08-06 02:00:00 23.9 15 Sudeste 27 Sudeste 0 -- -- 67
2017-08-06 01:00:00 24.7 10 Sudeste 23 Sudeste 0 -- -- 62
2017-08-06 00:00:00 25.7 6 Sudeste 14 Sudeste 0 -- -- 62
2017-08-05 23:00:00 26.9 4 Sur 18 Sur 0 -- -- 58
2017-08-05 22:00:00 27.9 7 Sur 16 Sur 0 -- -- 54
2017-08-05 21:00:00 29.1 5 Sur 18 Sur 0 -- -- 52
2017-08-05 20:00:00 30.9 9 Sur 19 Sudoeste 0 -- -- 41
2017-08-05 19:00:00 31.6 9 Sudoeste 24 Sur 0 -- -- 40
2017-08-05 18:00:00 33.4 14 Sur 30 Sudoeste 0 -- -- 36
2017-08-05 17:00:00 33.3 14 Sudoeste 26 Sudoeste 0 -- -- 35
2017-08-05 16:00:00 32.4 10 Sur 29 Sudeste 0 -- -- 37
2017-08-05 15:00:00 32.7 13 Sur 29 Sudoeste 0 -- -- 34
2017-08-05 14:00:00 31.7 14 Sur 28 Sur 0 -- -- 40
2017-08-05 13:00:00 31.8 13 Sur 28 Sur 0 -- -- 41
2017-08-05 12:00:00 31.3 11 Sur 25 Sudeste 0 -- -- 43
2017-08-05 11:00:00 30.1 13 Sudeste 23 Este 0 -- -- 46
2017-08-05 10:00:00 28 12 Sur 17 Sudeste 0 -- -- 50
2017-08-05 09:00:00 26.2 6 Este 9 Este 0 -- -- 53
2017-08-05 08:00:00 25 4 Este 12 Nordeste 0 -- -- 56
2017-08-05 07:00:00 21.7 3 Este 14 Nordeste 0 -- -- 65
2017-08-05 06:00:00 21.2 4 Este 10 Este 0 -- -- 66
2017-08-05 05:00:00 20.5 4 Nordeste 9 Norte 0 -- -- 67
2017-08-05 04:00:00 21.6 3 Nordeste 8 Este 0 -- -- 63
2017-08-05 03:00:00 21.8 5 Nordeste 8 Este 0 -- -- 60
2017-08-05 02:00:00 23.1 4 Este 10 Este 0 -- -- 53
2017-08-05 01:00:00 22.9 3 Norte 11 Norte 0 -- -- 53
2017-08-05 00:00:00 23.4 7 Norte 12 Noroeste 0 -- -- 51
2017-08-04 23:00:00 24.3 6 Norte 12 Norte 0 -- -- 48
2017-08-04 22:00:00 26.2 4 Noroeste 9 Sudoeste 0 -- -- 45
2017-08-04 21:00:00 31.8 5 Sudoeste 24 Sudoeste 0 -- -- 34
2017-08-04 20:00:00 33.1 17 Oeste 30 Oeste 0 -- -- 33
2017-08-04 19:00:00 33.9 17 Oeste 27 Sudoeste 0 -- -- 34
2017-08-04 18:00:00 34.2 12 Oeste 30 Oeste 0 -- -- 33
2017-08-04 17:00:00 34 12 Sudoeste 30 Sudoeste 0 -- -- 32
2017-08-04 16:00:00 34.1 14 Sudoeste 27 Sudoeste 0 -- -- 31
2017-08-04 15:00:00 33.7 12 Oeste 32 Oeste 0 -- -- 34
2017-08-04 14:00:00 32.7 14 Oeste 33 Oeste 0 -- -- 34
2017-08-04 13:00:00 32.3 10 Sur 23 Sur 0 -- -- 34
2017-08-04 12:00:00 32 9 Sudeste 17 Sur 0 -- -- 35
2017-08-04 11:00:00 29.9 7 Oeste 13 Noroeste 0 -- -- 38
2017-08-04 10:00:00 29.8 5 Sudeste 12 Este 0 -- -- 38
2017-08-04 09:00:00 27.8 5 Este 8 Nordeste 0 -- -- 42
2017-08-04 08:00:00 22 5 Norte 9 Norte 0 -- -- 57
2017-08-04 07:00:00 20.7 6 Norte 10 Norte 0 -- -- 60
2017-08-04 06:00:00 20.3 8 Noroeste 12 Norte 0 -- -- 60
2017-08-04 05:00:00 21.3 4 Norte 14 Norte 0 -- -- 57
2017-08-04 04:00:00 21.5 7 Norte 14 Norte 0 -- -- 58
2017-08-04 03:00:00 21.4 12 Norte 14 Norte 0 -- -- 57
2017-08-04 02:00:00 21 9 Norte 12 Norte 0 -- -- 59
2017-08-04 01:00:00 24.1 6 Este 10 Este 0 -- -- 47
2017-08-04 00:00:00 23.5 6 Este 9 Norte 0 -- -- 47
2017-08-03 23:00:00 23.5 8 Norte 12 Norte 0 -- -- 46
2017-08-03 22:00:00 25.6 8 Norte 11 Norte 0 -- -- 41
2017-08-03 21:00:00 31 5 Sudoeste 20 Sudoeste 0 -- -- 31
2017-08-03 20:00:00 33.8 12 Sudoeste 23 Sudoeste 0 -- -- 26
2017-08-03 19:00:00 34.8 10 Oeste 29 Oeste 0 -- -- 27
2017-08-03 18:00:00 34.9 12 Sudoeste 28 Sudoeste 0 -- -- 26
2017-08-03 17:00:00 34.8 14 Sudoeste 35 Oeste 0 -- -- 27
2017-08-03 16:00:00 35 8 Sudoeste 25 Oeste 0 -- -- 29
2017-08-03 15:00:00 32.6 7 Sudoeste 22 Oeste 0 -- -- 33
2017-08-03 14:00:00 32.3 12 Oeste 18 Oeste 0 -- -- 31
2017-08-03 13:00:00 33.2 7 Sudeste 19 Sudeste 0 -- -- 30
2017-08-03 12:00:00 32.3 9 Sudeste 15 Sudeste 0 -- -- 33
2017-08-03 11:00:00 31 5 Sur 16 Sudeste 0 -- -- 36
2017-08-03 10:00:00 29.9 9 Este 15 Este 0 -- -- 39
2017-08-03 09:00:00 25.7 4 Noroeste 11 Noroeste 0 -- -- 53
2017-08-03 08:00:00 22.8 2 Sudoeste 5 Noroeste 0 -- -- 62
2017-08-03 07:00:00 20 3 Norte 8 Norte 0 -- -- 67
2017-08-03 06:00:00 21 0 Calma 10 Norte 0 -- -- 63
2017-08-03 05:00:00 21 6 Nordeste 14 Nordeste 0 -- -- 63
2017-08-03 04:00:00 21.2 9 Norte 13 Norte 0 -- -- 63
2017-08-03 03:00:00 20.6 11 Norte 13 Norte 0 -- -- 63
2017-08-03 02:00:00 21.1 8 Norte 10 Norte 0 -- -- 64
2017-08-03 01:00:00 24.4 6 Este 17 Sudeste 0 -- -- 53
2017-08-03 00:00:00 25.1 9 Sudeste 17 Sudeste 0 -- -- 51
2017-08-02 23:00:00 26.5 9 Sudeste 15 Sur 0 -- -- 47
2017-08-02 22:00:00 28.1 9 Sudeste 17 Sur 0 -- -- 42
2017-08-02 21:00:00 29.3 10 Sudeste 16 Sur 0 -- -- 37
2017-08-02 20:00:00 30.5 7 Sur 18 Sur 0 -- -- 34
2017-08-02 19:00:00 31.5 13 Sur 28 Sur 0 -- -- 33
2017-08-02 18:00:00 32.1 7 Sudoeste 27 Sudoeste 0 -- -- 32
2017-08-02 17:00:00 32.4 15 Sudoeste 30 Sudoeste 0 -- -- 33
2017-08-02 16:00:00 33.1 6 Norte 26 Oeste 0 -- -- 32
2017-08-02 15:00:00 31.8 18 Oeste 42 Sudoeste 0 -- -- 34
2017-08-02 14:00:00 30.9 23 Sudoeste 39 Sudoeste 0 -- -- 33
2017-08-02 13:00:00 32.6 8 Oeste 18 Sudoeste 0 -- -- 31
2017-08-02 12:00:00 31.2 8 Sur 22 Este 0 -- -- 36
2017-08-02 11:00:00 30.5 10 Este 19 Este 0 -- -- 39
2017-08-02 10:00:00 27 10 Este 17 Este 0 -- -- 47
2017-08-02 09:00:00 24.1 5 Sudeste 21 Este 0 -- -- 54
2017-08-02 08:00:00 23.3 9 Este 23 Nordeste 0 -- -- 54
2017-08-02 07:00:00 22.6 13 Nordeste 25 Nordeste 0 -- -- 55
2017-08-02 06:00:00 22.4 18 Este 26 Nordeste 0 -- -- 56
2017-08-02 05:00:00 22.8 21 Nordeste 26 Nordeste 0 -- -- 55
2017-08-02 04:00:00 22.9 12 Nordeste 22 Nordeste 0 -- -- 56
2017-08-02 03:00:00 22.7 18 Nordeste 23 Este 0 -- -- 58
2017-08-02 02:00:00 22.2 14 Este 21 Nordeste 0 -- -- 58
2017-08-02 01:00:00 21.5 9 Este 12 Nordeste 0 -- -- 61
2017-08-02 00:00:00 22.4 10 Este 17 Sudeste 0 -- -- 60
2017-08-01 23:00:00 23.6 9 Este 17 Sudeste 0 -- -- 51
2017-08-01 22:00:00 24.5 9 Sudeste 22 Sudeste 0 -- -- 49
2017-08-01 21:00:00 26.9 13 Sudeste 20 Sudeste 0 -- -- 42
2017-08-01 20:00:00 28.7 14 Sudeste 26 Sudeste 0 -- -- 38
2017-08-01 19:00:00 29.1 16 Sudeste 33 Sudeste 0 -- -- 38
2017-08-01 18:00:00 28.4 15 Sudeste 31 Este 0 -- -- 42
2017-08-01 17:00:00 27.3 19 Sudeste 33 Sur 0 -- -- 53
2017-08-01 16:00:00 28 9 Sudeste 18 Sur 0 -- -- 48
2017-08-01 15:00:00 28.8 8 Sur 17 Sudeste 0 -- -- 47
2017-08-01 14:00:00 27.4 10 Sudeste 17 Sudeste 0 -- -- 54
2017-08-01 13:00:00 25.8 11 Sudeste 24 Sudeste 0 -- -- 59
2017-08-01 12:00:00 26.4 15 Sudeste 24 Sudeste 0 -- -- 60
2017-08-01 11:00:00 27 13 Sudeste 23 Sudeste 0 -- -- 55
2017-08-01 10:00:00 24.9 10 Noroeste 16 Noroeste 0 -- -- 61
2017-08-01 09:00:00 24.7 5 Nordeste 9 Nordeste 0 -- -- 61
2017-08-01 08:00:00 22.8 5 Este 8 Este 0 -- -- 65
2017-08-01 07:00:00 20.5 5 Este -- -- 0 -- -- 67
2017-08-01 06:00:00 20.2 5 Norte 13 Nordeste 0 -- -- 61
2017-08-01 05:00:00 21 3 Este 10 Norte 0 -- -- 57
2017-08-01 04:00:00 20.6 5 Norte 16 Sudeste 0 -- -- 55
2017-08-01 03:00:00 23.8 13 Sudeste 19 Sudeste 0 -- -- 47
2017-08-01 02:00:00 24.8 14 Este 29 Este 0 -- -- 41
2017-08-01 01:00:00 25.7 19 Este 27 Este 0 -- -- 39
2017-08-01 00:00:00 25.9 17 Este 32 Sudeste 0 -- -- 39
2017-07-31 23:00:00 27.1 23 Sudeste 46 Sudeste 0 -- -- 39
2017-07-31 22:00:00 27.7 21 Sudeste 34 Sudeste 0 -- -- 41
2017-07-31 21:00:00 29.3 17 Sudeste 37 Sudeste 0 -- -- 29
2017-07-31 20:00:00 31.8 21 Sudeste 40 Sudeste 0 -- -- 27
2017-07-31 19:00:00 33.2 21 Sudeste 37 Sudeste 0 -- -- 27
2017-07-31 18:00:00 33.3 24 Sudeste 45 Sudeste 0 -- -- 29
2017-07-31 17:00:00 33.4 24 Sudeste 50 Sudeste 0 -- -- 28
2017-07-31 16:00:00 33.1 24 Sur 43 Sudeste 0 -- -- 28
2017-07-31 15:00:00 32.6 20 Sudeste 40 Sur 0 -- -- 29
2017-07-31 14:00:00 32.1 15 Sudeste 38 Sudeste 0 -- -- 31
2017-07-31 13:00:00 30.7 17 Sudeste 32 Sudeste 0 -- -- 32
2017-07-31 12:00:00 29.6 18 Sudeste 31 Sudeste 0 -- -- 35
2017-07-31 11:00:00 28.6 17 Sudeste 29 Sudeste 0 -- -- 37
2017-07-31 10:00:00 28 10 Sudeste 17 Sur 0 -- -- 39
2017-07-31 09:00:00 26.7 6 Sudeste 10 Este 0 -- -- 40
2017-07-31 08:00:00 20.9 4 Este 13 Este 0 -- -- 56
2017-07-31 07:00:00 17.9 8 Norte 13 Este 0 -- -- 65
2017-07-31 06:00:00 22 11 Este 16 Sur 0 -- -- 47
2017-07-31 05:00:00 23.3 14 Este 20 Este 0 -- -- 43
2017-07-31 04:00:00 23.8 13 Este 25 Este 0 -- -- 43
2017-07-31 03:00:00 23.4 10 Este 21 Este 0 -- -- 49
2017-07-31 02:00:00 23.5 13 Este 22 Este 0 -- -- 53
2017-07-31 01:00:00 24.4 16 Este 26 Este 0 -- -- 51
2017-07-31 00:00:00 24.9 14 Este 23 Este 0 -- -- 52
2017-07-30 23:00:00 25.7 11 Este 23 Sudeste 0 -- -- 52
2017-07-30 22:00:00 27.6 11 Sudeste 31 Sudeste 0 -- -- 51
2017-07-30 21:00:00 29 15 Sudeste 31 Sudeste 0 -- -- 47
2017-07-30 20:00:00 32.5 14 Sur 29 Sudeste 0 -- -- 34
2017-07-30 19:00:00 34.2 15 Sur 28 Sur 0 -- -- 23
2017-07-30 18:00:00 35.5 9 Sur 28 Sudoeste 0 -- -- 21
2017-07-30 17:00:00 34.2 14 Sudoeste 30 Sudoeste 0 -- -- 24
2017-07-30 16:00:00 34.5 15 Sudoeste 35 Sur 0 -- -- 23
2017-07-30 15:00:00 33.8 16 Sudoeste 29 Sudoeste 0 -- -- 25
2017-07-30 14:00:00 33 10 Sudoeste 26 Sudeste 0 -- -- 31
2017-07-30 13:00:00 31.9 12 Sudeste 23 Sudeste 0 -- -- 36
2017-07-30 12:00:00 30.6 8 Sudeste 20 Sudeste 0 -- -- 42
2017-07-30 11:00:00 28.3 7 Sudoeste 13 Sudeste 0 -- -- 50
2017-07-30 10:00:00 28.4 5 Sudeste 13 Este 0 -- -- 49
2017-07-30 09:00:00 25.5 8 Este 12 Este 0 -- -- 60
2017-07-30 08:00:00 20.7 5 Noroeste 10 Norte 0 -- -- 75
2017-07-30 07:00:00 20.9 4 Oeste 8 Oeste 0 -- -- 73
2017-07-30 06:00:00 19.7 2 Oeste 13 Nordeste 0 -- -- 79
2017-07-30 05:00:00 20.3 2 Norte 12 Norte 0 -- -- 79
2017-07-30 04:00:00 19.6 8 Norte 11 Norte 0 -- -- 81
2017-07-30 03:00:00 19.9 8 Norte 12 Norte 0 -- -- 80
2017-07-30 02:00:00 20.9 0 Calma 8 Norte 0 -- -- 79
2017-07-30 01:00:00 21.5 7 Norte 10 Norte 0 -- -- 78
2017-07-30 00:00:00 23.8 5 Este 10 Sudeste 0 -- -- 70
2017-07-29 23:00:00 25 4 Este 12 Sudeste 0 -- -- 66
2017-07-29 22:00:00 26.3 6 Sudeste 24 Sudoeste 0 -- -- 61
2017-07-29 21:00:00 28.8 12 Sur 20 Sur 0 -- -- 51
2017-07-29 20:00:00 32 12 Sur 22 Sur 0 -- -- 38
2017-07-29 19:00:00 33 12 Noroeste 19 Noroeste 0 -- -- 31
2017-07-29 18:00:00 33.2 6 Sur 22 Sudoeste 0 -- -- 35
2017-07-29 17:00:00 32.6 10 Sur 24 Sudoeste 0 -- -- 37
2017-07-29 16:00:00 32.4 12 Sudoeste 25 Sudoeste 0 -- -- 33
2017-07-29 15:00:00 31.3 12 Sur 27 Sudoeste 0 -- -- 35
2017-07-29 14:00:00 30.4 14 Sur 30 Sudeste 0 -- -- 39
2017-07-29 13:00:00 29.2 13 Sur 23 Sudeste 0 -- -- 41
2017-07-29 12:00:00 28.1 9 Sudeste 22 Este 0 -- -- 50
2017-07-29 11:00:00 27.1 6 Sur 15 Sur 0 -- -- 52
2017-07-29 10:00:00 25 9 Sudeste 14 Sur 0 -- -- 55
2017-07-29 09:00:00 23.4 7 Sudeste 12 Sudeste 0 -- -- 66
2017-07-29 08:00:00 21.8 4 Este 7 Norte 0 -- -- 75
2017-07-29 07:00:00 18.8 0 Calma 10 Sudeste 0 -- -- 84
2017-07-29 06:00:00 19.7 7 Este 9 Este 0 -- -- 80
2017-07-29 05:00:00 21.6 7 Nordeste 14 Este 0 -- -- 71
2017-07-29 04:00:00 22.1 9 Este 15 Este 0 -- -- 68
2017-07-29 03:00:00 21.1 4 Norte 14 Norte 0 -- -- 80
2017-07-29 02:00:00 20.5 8 Norte 10 Norte 0 -- -- 82
2017-07-29 01:00:00 20.8 6 Nordeste 10 Nordeste 0 -- -- 78
2017-07-29 00:00:00 22.1 4 Este 9 Este 0 -- -- 66
2017-07-28 23:00:00 23.2 2 Este 13 Sudeste 0 -- -- 58
2017-07-28 22:00:00 24.7 5 Este 9 Este 0 -- -- 49
2017-07-28 21:00:00 29.5 4 Sudeste 18 Sudoeste 0 -- -- 40
2017-07-28 20:00:00 30.9 12 Sudoeste 23 Sur 0 -- -- 37
2017-07-28 19:00:00 32 13 Oeste 24 Sudoeste 0 -- -- 35
2017-07-28 18:00:00 31.9 10 Sudoeste 24 Sur 0 -- -- 34
2017-07-28 17:00:00 31.5 13 Sudoeste 24 Sudoeste 0 -- -- 40
2017-07-28 16:00:00 31.1 11 Sur 27 Sudeste 0 -- -- 42
2017-07-28 15:00:00 30.1 13 Sudeste 26 Sudeste 0 -- -- 46
2017-07-28 14:00:00 29.1 10 Sudeste 24 Sur 0 -- -- 49
2017-07-28 13:00:00 28.6 11 Sudeste 22 Sudeste 0 -- -- 50
2017-07-28 12:00:00 27.6 10 Sur 19 Sudeste 0 -- -- 51
2017-07-28 11:00:00 26.8 9 Sudeste 22 Este 0 -- -- 54
2017-07-28 10:00:00 25.4 9 Sudeste 24 Sudeste 0 -- -- 58
2017-07-28 09:00:00 24.9 7 Sudeste 12 Sudeste 0 -- -- 59
2017-07-28 08:00:00 22.3 9 Este 13 Este 0 -- -- 60
2017-07-28 07:00:00 17.6 2 Nordeste 10 Norte 0 -- -- 74
2017-07-28 06:00:00 18.2 4 Nordeste 9 Norte 0 -- -- 70
2017-07-28 05:00:00 18.6 4 Nordeste 8 Este 0 -- -- 68
2017-07-28 04:00:00 19.2 5 Este 7 Este 0 -- -- 66
2017-07-28 03:00:00 19.1 5 Norte 9 Norte 0 -- -- 71
2017-07-28 02:00:00 20.3 4 Norte 9 Noroeste 0 -- -- 65
2017-07-28 01:00:00 20.5 3 Nordeste 13 Norte 0 -- -- 62
2017-07-28 00:00:00 21.9 4 Nordeste 14 Sudeste 0 -- -- 52
2017-07-27 23:00:00 24.5 8 Este 15 Este 0 -- -- 39
2017-07-27 22:00:00 25.5 4 Noroeste 14 Noroeste 0 -- -- 33
2017-07-27 21:00:00 30.8 10 Noroeste 22 Oeste 0 -- -- 24
2017-07-27 20:00:00 32.9 10 Oeste 27 Sudoeste 0 -- -- 24
2017-07-27 19:00:00 32.6 14 Sudoeste 35 Sudoeste 0 -- -- 25
2017-07-27 18:00:00 31.8 15 Oeste 32 Sudoeste 0 -- -- 28
2017-07-27 17:00:00 31.5 18 Oeste 34 Sudoeste 0 -- -- 30
2017-07-27 16:00:00 30.9 16 Oeste 36 Oeste 0 -- -- 31
2017-07-27 15:00:00 30.6 14 Oeste -- -- -- -- -- 31
2017-07-27 14:00:00 -- 11 Oeste 23 Oeste 0 -- -- --
2017-07-27 13:00:00 28.4 11 Oeste 23 Oeste 0 -- -- 38
2017-07-27 12:00:00 27.6 7 Sur 16 Sudeste 0 -- -- 44
2017-07-27 11:00:00 26.5 4 Sudeste 11 Sudeste 0 -- -- 45
2017-07-27 10:00:00 24.2 5 Sudeste 12 Este 0 -- -- 51
2017-07-27 09:00:00 22.7 5 Este 8 Este 0 -- -- 54
2017-07-27 08:00:00 17.5 4 Norte 10 Norte 0 -- -- 68
2017-07-27 07:00:00 14 8 Norte 11 Norte 0 -- -- 81
2017-07-27 06:00:00 14.9 0 Calma 10 Norte 0 -- -- 77
2017-07-27 05:00:00 15.3 7 Norte 12 Norte 0 -- -- 75
2017-07-27 04:00:00 15.6 8 Norte 12 Norte 0 -- -- 75
2017-07-27 03:00:00 16.6 3 Norte 9 Norte 0 -- -- 71
2017-07-27 02:00:00 17.8 2 Sudeste 9 Este 0 -- -- 66
2017-07-27 01:00:00 19 4 Este 10 Norte 0 -- -- 62
2017-07-27 00:00:00 19.2 6 Norte 11 Norte 0 -- -- 62
2017-07-26 23:00:00 20.3 4 Norte 11 Sudeste 0 -- -- 60
2017-07-26 22:00:00 23.6 8 Sudeste 15 Este 0 -- -- 49
2017-07-26 21:00:00 26.5 10 Sudoeste 23 Sudoeste 0 -- -- 43
2017-07-26 20:00:00 27.8 14 Sudoeste 29 Sudoeste 0 -- -- 39
2017-07-26 19:00:00 28.4 15 Oeste 28 Oeste 0 -- -- 37
2017-07-26 18:00:00 28.2 17 Oeste 31 Oeste 0 -- -- 34
2017-07-26 17:00:00 27.5 14 Oeste 31 Oeste 0 -- -- 36
2017-07-26 16:00:00 26.3 15 Oeste 26 Oeste 0 -- -- 36
2017-07-26 15:00:00 24.7 14 Oeste 26 Noroeste 0 -- -- 38
2017-07-26 14:00:00 24.1 13 Oeste 26 Oeste 0 -- -- 40
2017-07-26 13:00:00 23 13 Oeste 25 Oeste 0 -- -- 46
2017-07-26 12:00:00 22.8 10 Oeste 20 Oeste 0 -- -- 43
2017-07-26 11:00:00 21.4 9 Noroeste 15 Oeste 0 -- -- 50
2017-07-26 10:00:00 20.7 3 Sur 8 Sudoeste 0 -- -- 54
2017-07-26 09:00:00 18.9 2 Sudeste 6 Este 0 -- -- 60
2017-07-26 08:00:00 14.3 0 Calma 8 Noroeste 0 -- -- 74
2017-07-26 07:00:00 10.9 5 Norte 10 Norte 0 -- -- 82
2017-07-26 06:00:00 11 5 Norte 8 Norte 0 -- -- 81
2017-07-26 05:00:00 12 3 Nordeste 6 Nordeste 0 -- -- 80
2017-07-26 04:00:00 12.7 2 Nordeste 6 Noroeste 0 -- -- 74
2017-07-26 03:00:00 14.3 2 Este 10 Este 0 -- -- 70
2017-07-26 02:00:00 15.4 10 Este 17 Nordeste 0 -- -- 67
2017-07-26 01:00:00 17.3 14 Nordeste 19 Nordeste 0 -- -- 56
2017-07-26 00:00:00 16.6 4 Este 13 Nordeste 0 -- -- 63
2017-07-25 23:00:00 17.4 5 Nordeste 10 Norte 0 -- -- 59
2017-07-25 22:00:00 21 2 Sudeste 18 Sudoeste 0 -- -- 48
2017-07-25 21:00:00 23.7 13 Sudoeste 29 Sudoeste 0 -- -- 42
2017-07-25 20:00:00 25.2 17 Sudoeste 30 Oeste 0 -- -- 38
2017-07-25 19:00:00 25.9 19 Sudoeste 32 Sudoeste 0 -- -- 36
2017-07-25 18:00:00 26.7 14 Oeste 30 Oeste 0 -- -- 34
2017-07-25 17:00:00 26.6 12 Sudoeste 32 Sudoeste 0 -- -- 32
2017-07-25 16:00:00 25.7 17 Noroeste 32 Oeste 0 -- -- 34
2017-07-25 15:00:00 24.7 17 Oeste 32 Oeste 0 -- -- 37
2017-07-25 14:00:00 23.8 16 Oeste 32 Oeste 0 -- -- 40
2017-07-25 13:00:00 23.8 12 Noroeste 25 Oeste 0 -- -- 39
2017-07-25 12:00:00 22.8 13 Oeste 21 Noroeste 0 -- -- 39
2017-07-25 11:00:00 22.2 6 Oeste 14 Oeste 0 -- -- 38
2017-07-25 10:00:00 21 7 Oeste 15 Sudeste 0 -- -- 44
2017-07-25 09:00:00 20.8 10 Este 16 Este 0 -- -- 39
2017-07-25 08:00:00 16.4 7 Norte 14 Norte 0 -- -- 53
2017-07-25 07:00:00 11.1 12 Norte 15 Norte 0 -- -- 69
2017-07-25 06:00:00 12.9 6 Norte 9 Noroeste 0 -- -- 63
2017-07-25 05:00:00 14.5 4 Noroeste 14 Nordeste 0 -- -- 59
2017-07-25 04:00:00 16.7 9 Nordeste 21 Este 0 -- -- 52
2017-07-25 03:00:00 16.3 14 Nordeste 19 Este 0 -- -- 51
2017-07-25 02:00:00 15.1 11 Norte 14 Norte 0 -- -- 58
2017-07-25 01:00:00 17.1 6 Norte 10 Norte 0 -- -- 56
2017-07-25 00:00:00 18.4 8 Norte 16 Nordeste 0 -- -- 50
2017-07-24 23:00:00 21 10 Norte 22 Oeste 0 -- -- 44
2017-07-24 22:00:00 22.2 12 Noroeste 31 Oeste 0 -- -- 48
2017-07-24 21:00:00 25.2 19 Oeste 33 Noroeste 0 -- -- 43
2017-07-24 20:00:00 27.2 19 Noroeste 34 Oeste 0 -- -- 36
2017-07-24 19:00:00 28.2 23 Oeste 37 Oeste 0 -- -- 36
2017-07-24 18:00:00 29.1 17 Oeste 32 Sudoeste 0 -- -- 34
2017-07-24 17:00:00 28.4 18 Oeste 35 Oeste 0 -- -- 35
2017-07-24 16:00:00 28.5 15 Oeste 37 Oeste 0 -- -- 33
2017-07-24 15:00:00 27.7 16 Oeste 28 Oeste 0 -- -- 35
2017-07-24 14:00:00 27.3 18 Oeste 33 Noroeste 0 -- -- 38
2017-07-24 13:00:00 24.8 15 Oeste 33 Oeste 0 -- -- 47
2017-07-24 12:00:00 23.4 13 Oeste 24 Oeste 0 -- -- 54
2017-07-24 11:00:00 21.9 17 Oeste 28 Oeste 0 -- -- 57
2017-07-24 10:00:00 21.5 11 Oeste 20 Sudoeste 0 -- -- 60
2017-07-24 09:00:00 19.9 6 Oeste 13 Noroeste 0 -- -- 64
2017-07-24 08:00:00 18.1 10 Oeste 16 Noroeste 0 -- -- 73
2017-07-24 07:00:00 15.8 12 Noroeste 16 Noroeste 0 -- -- 89
2017-07-24 06:00:00 15.3 3 Noroeste 15 Noroeste 0 -- -- 91
2017-07-24 05:00:00 15.4 5 Noroeste 12 Norte 0 -- -- 93
2017-07-24 04:00:00 15.5 6 Norte 11 Norte 0 -- -- 91
2017-07-24 03:00:00 15.5 5 Norte 8 Norte 0 -- -- 88
2017-07-24 02:00:00 15.6 3 Norte 9 Norte 0 -- -- 86
2017-07-24 01:00:00 16.3 2 Norte 10 Norte 0 -- -- 84
2017-07-24 00:00:00 16.7 9 Norte 14 Norte 0 -- -- 81
2017-07-23 23:00:00 17.9 5 Norte 13 Oeste 0 -- -- 74
2017-07-23 22:00:00 20.4 10 Noroeste 19 Noroeste 0 -- -- 61
2017-07-23 21:00:00 19.8 8 Norte 38 Norte 0 -- -- 64
2017-07-23 20:00:00 23.8 8 Sur 24 Sur 0 -- -- 66
2017-07-23 19:00:00 26.1 12 Sur 28 Sur 0 -- -- 58
2017-07-23 18:00:00 25.3 16 Sur 33 Sudoeste 0 -- -- 60
2017-07-23 17:00:00 25.6 15 Sudoeste 29 Sudoeste 0 -- -- 59
2017-07-23 16:00:00 26.4 14 Sur 28 Sudoeste 0 -- -- 58
2017-07-23 15:00:00 26.5 16 Sudoeste 30 Sudoeste 0 -- -- 57
2017-07-23 14:00:00 26.4 16 Sur 25 Sur 0 -- -- 59
2017-07-23 13:00:00 25.1 12 Sur 25 Sur 0 -- -- 66
2017-07-23 12:00:00 24.9 7 Sur 18 Sur 0 -- -- 66
2017-07-23 11:00:00 24.8 5 Sudeste 14 Sudeste 0 -- -- 65
2017-07-23 10:00:00 23.6 3 Sur 8 Sudeste 0 -- -- 73
2017-07-23 09:00:00 21.5 3 Sudeste 5 Sudoeste 0 -- -- 81
2017-07-23 08:00:00 18.8 2 Norte 5 Noroeste 0 -- -- 91
2017-07-23 07:00:00 17.5 2 Este 10 Norte 0 -- -- 94
2017-07-23 06:00:00 17 4 Norte 9 Noroeste 0 -- -- 93
2017-07-23 05:00:00 17.5 3 Norte 12 Norte 0 -- -- 91
2017-07-23 04:00:00 18.1 9 Norte 12 Norte 0 -- -- 92
2017-07-23 03:00:00 18.2 6 Norte 9 Norte 0 -- -- 91
2017-07-23 02:00:00 18.5 5 Nordeste 10 Nordeste 0 -- -- 91
2017-07-23 01:00:00 20.3 4 Este 10 Este 0 -- -- 86
2017-07-23 00:00:00 20.9 7 Este 11 Sudeste 0 -- -- 83
2017-07-22 23:00:00 22.1 7 Sudeste 16 Sudeste 0 -- -- 78
2017-07-22 22:00:00 23.4 6 Sudeste 15 Sudeste 0 -- -- 71
2017-07-22 21:00:00 27.6 7 Sudoeste 14 Sudoeste 0 -- -- 39
2017-07-22 20:00:00 29.7 6 Sudoeste 18 Noroeste 0 -- -- 35
2017-07-22 19:00:00 29.7 8 Oeste 24 Oeste 0 -- -- 35
2017-07-22 18:00:00 30.4 6 Oeste 25 Sudoeste 0 -- -- 34
2017-07-22 17:00:00 29 8 Noroeste 21 Oeste 0 -- -- 40
2017-07-22 16:00:00 28.2 7 Sur 26 Sur 0 -- -- 43
2017-07-22 15:00:00 27.6 15 Sur 29 Sur 0 -- -- 52
2017-07-22 14:00:00 27.1 10 Sudeste 21 Sur 0 -- -- 52
2017-07-22 13:00:00 26.5 9 Sudeste 20 Sur 0 -- -- 54
2017-07-22 12:00:00 24.7 12 Sudeste 19 Sur 0 -- -- 60
2017-07-22 11:00:00 23.5 8 Sudeste 16 Sudeste 0 -- -- 64
2017-07-22 10:00:00 21.6 9 Sudeste 20 Sudeste 0 -- -- 71
2017-07-22 09:00:00 20.8 8 Sudeste 15 Este 0 -- -- 73
2017-07-22 08:00:00 20.2 5 Este 8 Este 0 -- -- 75
2017-07-22 07:00:00 15.3 4 Nordeste 7 Norte 0 -- -- 92
2017-07-22 06:00:00 16.6 0 Calma 12 Este 0 -- -- 89
2017-07-22 05:00:00 17.1 7 Este 13 Este 0 -- -- 88
2017-07-22 04:00:00 16.9 8 Norte 14 Norte 0 -- -- 90
2017-07-22 03:00:00 17 9 Norte 16 Norte 0 -- -- 88
2017-07-22 02:00:00 17.3 8 Norte 15 Norte 0 -- -- 90
2017-07-22 01:00:00 17.8 3 Norte 8 Norte 0 -- -- 86
2017-07-22 00:00:00 18.9 0 Calma 8 Norte 0 -- -- 81
2017-07-21 23:00:00 20.6 2 Nordeste 13 Sudeste 0 -- -- 73
2017-07-21 22:00:00 21.2 5 Sudeste 17 Sur 0 -- -- 70
2017-07-21 21:00:00 22.8 9 Sur 22 Sudeste 0 -- -- 63
2017-07-21 20:00:00 25.7 13 Sur 23 Sur 0 -- -- 52
2017-07-21 19:00:00 27.4 8 Sudeste 15 Sudeste 0 -- -- 47
2017-07-21 18:00:00 28.3 4 Norte 13 Sur 0 -- -- 45
2017-07-21 17:00:00 25.8 5 Sudoeste 16 Sudoeste 0 -- -- 51
2017-07-21 16:00:00 25.6 8 Sudeste 15 Sudeste 0 -- -- 51
2017-07-21 15:00:00 24.8 9 Sur 17 Sur 0 -- -- 53
2017-07-21 14:00:00 22.9 11 Oeste 21 Sudoeste 0 -- -- 66
2017-07-21 13:00:00 22.8 10 Este 24 Este 0 -- -- 61
2017-07-21 12:00:00 22.8 6 Nordeste 17 Nordeste 0 -- -- 65
2017-07-21 11:00:00 18.9 9 Norte 21 Sudeste 0.2 -- -- 86
2017-07-21 10:00:00 17.3 12 Sudeste 30 Sur 1 -- -- 93
2017-07-21 09:00:00 19 5 Sur 10 Sur 0 -- -- 81
2017-07-21 08:00:00 18.5 5 Este 8 Nordeste 0 -- -- 82
2017-07-21 07:00:00 18.5 3 Este 13 Sudeste 0 -- -- 79
2017-07-21 06:00:00 18.6 4 Este 10 Este 0 -- -- 79
2017-07-21 05:00:00 19.1 5 Este 10 Sudeste 0 -- -- 77
2017-07-21 04:00:00 19 7 Este 15 Este 0 -- -- 77
2017-07-21 03:00:00 19.5 12 Sudeste 20 Sudeste 0 -- -- 78
2017-07-21 02:00:00 20.1 10 Sudeste 18 Sudeste 0 -- -- 76
2017-07-21 01:00:00 20.4 9 Sudeste 22 Sudeste 0 -- -- 77
2017-07-21 00:00:00 21.1 14 Sudeste 34 Sudeste 0 -- -- 75
2017-07-20 23:00:00 22.5 14 Sudeste 24 Sudeste 0 -- -- 67
2017-07-20 22:00:00 23.3 10 Sudeste 17 Sudeste 0 -- -- 62
2017-07-20 21:00:00 27.5 6 Oeste 16 Noroeste 0 -- -- 44
2017-07-20 20:00:00 28.7 11 Oeste 19 Oeste 0 -- -- 42
2017-07-20 19:00:00 29 9 Oeste 21 Sudoeste 0 -- -- 42
2017-07-20 18:00:00 28 11 Sur 26 Sudoeste 0 -- -- 47
2017-07-20 17:00:00 28.3 14 Sur 25 Sur 0 -- -- 48
2017-07-20 16:00:00 27.9 9 Sudoeste 24 Sur 0 -- -- 47
2017-07-20 15:00:00 27.1 11 Sur 26 Sur 0 -- -- 53
2017-07-20 14:00:00 26.9 12 Sur 22 Sudoeste 0 -- -- 55
2017-07-20 13:00:00 26 13 Sur 22 Sudoeste 0 -- -- 53
2017-07-20 12:00:00 25.7 11 Sur 23 Sudeste 0 -- -- 51
2017-07-20 11:00:00 23.8 9 Sudeste 22 Sur 0 -- -- 60
2017-07-20 10:00:00 23.2 12 Sur 17 Sudeste 0 -- -- 56
2017-07-20 09:00:00 23.6 4 Sudeste 8 Sudeste 0 -- -- 51
2017-07-20 08:00:00 19.5 4 Noroeste 13 Norte 0 -- -- 64
2017-07-20 07:00:00 16.1 9 Norte 12 Norte 0 -- -- 74
2017-07-20 06:00:00 16.5 8 Norte 11 Norte 0 -- -- 70
2017-07-20 05:00:00 16.5 8 Norte 12 Norte 0 -- -- 68
2017-07-20 04:00:00 17.7 4 Norte 7 Este 0 -- -- 62
2017-07-20 03:00:00 18.6 4 Este 13 Este 0 -- -- 60
2017-07-20 02:00:00 18.4 6 Norte 11 Nordeste 0 -- -- 62
2017-07-20 01:00:00 20 5 Nordeste 26 Sudeste 0 -- -- 61
2017-07-20 00:00:00 22.7 13 Sudeste 24 Sudeste 0 -- -- 52
2017-07-19 23:00:00 23 15 Sudeste 30 Sudeste 0 -- -- 44
2017-07-19 22:00:00 23.4 14 Sudeste 33 Sudeste 0 -- -- 42
2017-07-19 21:00:00 25.1 19 Sudeste 36 Sudeste 0 -- -- 38
2017-07-19 20:00:00 26.1 18 Este 32 Sudeste 0 -- -- 40
2017-07-19 19:00:00 26.5 15 Sudeste 35 Sudeste 0 -- -- 38
2017-07-19 18:00:00 27.1 26 Sudeste 39 Sur 0 -- -- 41
2017-07-19 17:00:00 28.5 21 Sur 37 Sudeste 0 -- -- 38
2017-07-19 16:00:00 29.2 19 Sur 43 Sudeste 0 -- -- 36
2017-07-19 15:00:00 29.7 22 Sur 43 Este 0 -- -- 30
2017-07-19 14:00:00 30.8 21 Sudeste 35 Este 0 -- -- 30
2017-07-19 13:00:00 29.7 10 Sudeste 28 Sudeste 0 -- -- 35
2017-07-19 12:00:00 27.3 19 Este 37 Este 0 -- -- 44
2017-07-19 11:00:00 24.3 25 Este 43 Este 0 -- -- 49
2017-07-19 10:00:00 19.6 31 Este 45 Este 0.4 -- -- 69
2017-07-19 09:00:00 20.4 21 Este 37 Este 0 -- -- 63
2017-07-19 08:00:00 19.3 8 Este 32 Nordeste 0 -- -- 67
2017-07-19 07:00:00 19.3 6 Norte 19 Oeste 0 -- -- 68
2017-07-19 06:00:00 20.1 15 Nordeste 21 Este 0 -- -- 59
2017-07-19 05:00:00 19.9 9 Este 26 Sudeste 0 -- -- 63
2017-07-19 04:00:00 20.4 10 Este 28 Sudeste 0 -- -- 61
2017-07-19 03:00:00 22.1 4 Sudoeste 21 Norte 0 -- -- 54
2017-07-19 02:00:00 22.5 12 Nordeste 20 Este 0 -- -- 53
2017-07-19 01:00:00 21.3 8 Nordeste 13 Nordeste 0 -- -- 58
2017-07-19 00:00:00 22.5 5 Sudeste 37 Sudeste 0 -- -- 54